Time;durP1;ratioP1;P1;durP2;ratioP2;P2;SDS_P1;SDS_P2;PMS_P1;PMS_P2;Temp;Humidity;BMP_temperature;BMP_pressure;BME280_temperature;BME280_humidity;BME280_pressure;Samples;Min_cycle;Max_cycle;Signal;HPM_P1;HPM_P2
2022/11/08 00:02:17;;;;;;;55.30;28.75;;;;;;;;;;12992714;22;20283;-78
2022/11/08 00:17:55;;;;;;;55.78;28.13;;;;;;;;;;13001712;22;20066;-79
2022/11/08 00:22:56;;;;;;;60.50;27.83;;;;;;;;;;12952890;22;20467;-73
2022/11/08 00:27:56;;;;;;;55.15;26.90;;;;;;;;;;12953179;22;19993;-74
2022/11/08 00:32:56;;;;;;;62.88;29.17;;;;;;;;;;12954492;22;20347;-77
2022/11/08 00:37:56;;;;;;;59.33;28.75;;;;;;;;;;12926704;22;20489;-80
2022/11/08 00:42:57;;;;;;;63.03;29.95;;;;;;;;;;12951881;22;20019;-79
2022/11/08 00:47:57;;;;;;;62.90;27.80;;;;;;;;;;12951990;22;19998;-80
2022/11/08 00:52:57;;;;;;;66.72;28.60;;;;;;;;;;12951527;22;19996;-74
2022/11/08 00:57:57;;;;;;;75.30;30.88;;;;;;;;;;12951967;22;20458;-75
2022/11/08 01:08:17;;;;;;;61.63;28.50;;;;;;;;;;12999497;22;19995;-76
2022/11/08 01:13:18;;;;;;;61.30;31.05;;;;;;;;;;12951322;22;20019;-73
2022/11/08 01:18:18;;;;;;;58.20;27.83;;;;;;;;;;13006225;22;19983;-75
2022/11/08 01:23:19;;;;;;;63.45;30.30;;;;;;;;;;12965166;22;20403;-72
2022/11/08 01:28:19;;;;;;;63.60;29.05;;;;;;;;;;13005182;22;20061;-74
2022/11/08 01:33:19;;;;;;;67.05;29.75;;;;;;;;;;12954495;22;20465;-73
2022/11/08 01:38:19;;;;;;;70.55;33.05;;;;;;;;;;12951708;22;20494;-75
2022/11/08 01:43:34;;;;;;;76.88;31.75;;;;;;;;;;12952003;22;20031;-78
2022/11/08 01:48:37;;;;;;;66.88;29.70;;;;;;;;;;12950506;22;20351;-74
2022/11/08 01:53:38;;;;;;;72.82;32.22;;;;;;;;;;12996279;22;19994;-75
2022/11/08 01:58:40;;;;;;;75.40;32.07;;;;;;;;;;12998722;22;20450;-74
2022/11/08 02:03:40;;;;;;;75.63;31.40;;;;;;;;;;12950694;22;19984;-78
2022/11/08 02:08:41;;;;;;;74.82;32.58;;;;;;;;;;12950199;22;20426;-78
2022/11/08 02:13:41;;;;;;;71.53;33.60;;;;;;;;;;12948703;22;19992;-76
2022/11/08 02:18:43;;;;;;;79.00;34.40;;;;;;;;;;12998405;22;20430;-79
2022/11/08 02:23:54;;;;;;;78.18;35.42;;;;;;;;;;12993103;22;20454;-81
2022/11/08 02:28:54;;;;;;;76.38;36.60;;;;;;;;;;12998825;22;20034;-75
2022/11/08 02:33:54;;;;;;;74.70;33.33;;;;;;;;;;12949584;22;20015;-78
2022/11/08 02:38:56;;;;;;;78.85;35.15;;;;;;;;;;12948895;22;20039;-71
2022/11/08 02:43:56;;;;;;;84.80;34.90;;;;;;;;;;12970342;22;20428;-78
2022/11/08 02:48:57;;;;;;;79.90;33.27;;;;;;;;;;12949558;22;20004;-74
2022/11/08 02:53:57;;;;;;;72.70;32.42;;;;;;;;;;12998352;22;20117;-76
2022/11/08 02:58:57;;;;;;;75.10;31.60;;;;;;;;;;12949597;22;19991;-74
2022/11/08 03:03:57;;;;;;;71.93;31.60;;;;;;;;;;12950024;22;19992;-75
2022/11/08 03:08:58;;;;;;;74.88;30.80;;;;;;;;;;12950891;22;20097;-75
2022/11/08 03:13:58;;;;;;;75.80;31.10;;;;;;;;;;12981762;22;19991;-73
2022/11/08 03:18:59;;;;;;;71.80;29.70;;;;;;;;;;12949458;22;20004;-73
2022/11/08 03:23:59;;;;;;;71.32;28.02;;;;;;;;;;12949337;22;19991;-74
2022/11/08 03:28:59;;;;;;;70.13;30.38;;;;;;;;;;12949205;22;20007;-76
2022/11/08 03:33:59;;;;;;;65.05;32.65;;;;;;;;;;12949392;22;19988;-77
2022/11/08 03:38:59;;;;;;;69.03;30.77;;;;;;;;;;12948871;22;20014;-74
2022/11/08 03:44:00;;;;;;;76.03;28.67;;;;;;;;;;12948672;22;20086;-74
2022/11/08 03:49:00;;;;;;;70.47;31.85;;;;;;;;;;13002590;22;20000;-73
2022/11/08 03:54:00;;;;;;;64.35;30.58;;;;;;;;;;12975082;22;19994;-73
2022/11/08 03:59:00;;;;;;;80.35;32.45;;;;;;;;;;12969304;22;20493;-73
2022/11/08 04:04:01;;;;;;;69.38;30.85;;;;;;;;;;12956946;22;19998;-73
2022/11/08 04:09:01;;;;;;;75.43;32.87;;;;;;;;;;13006870;22;19999;-74
2022/11/08 04:24:39;;;;;;;85.20;35.08;;;;;;;;;;12997433;22;20435;-76
2022/11/08 04:29:40;;;;;;;87.45;38.58;;;;;;;;;;12953244;22;20000;-74
2022/11/08 04:34:40;;;;;;;80.80;37.75;;;;;;;;;;12952725;22;19987;-75
2022/11/08 04:39:43;;;;;;;87.38;38.67;;;;;;;;;;12951837;22;20065;-73
2022/11/08 04:44:43;;;;;;;79.97;37.65;;;;;;;;;;13000621;22;20352;-75
2022/11/08 04:49:43;;;;;;;83.28;37.38;;;;;;;;;;13000227;22;20004;-73
2022/11/08 04:54:45;;;;;;;80.95;36.65;;;;;;;;;;12980419;22;19991;-73
2022/11/08 04:59:45;;;;;;;83.75;36.90;;;;;;;;;;12951530;22;20019;-80
2022/11/08 05:04:45;;;;;;;88.45;38.47;;;;;;;;;;12951451;22;19995;-79
2022/11/08 05:09:45;;;;;;;92.07;37.97;;;;;;;;;;12926036;22;20007;-76
2022/11/08 05:14:46;;;;;;;87.00;37.95;;;;;;;;;;12999570;22;20438;-77
2022/11/08 05:25:05;;;;;;;;;;;;;;;;;;12999502;22;20705;-74
2022/11/08 05:30:05;;;;;;;82.18;34.47;;;;;;;;;;12997987;22;20378;-76
2022/11/08 05:35:06;;;;;;;83.57;35.55;;;;;;;;;;12949744;22;19999;-76
2022/11/08 05:40:06;;;;;;;77.28;33.83;;;;;;;;;;12949126;22;20459;-74
2022/11/08 05:45:07;;;;;;;72.95;33.35;;;;;;;;;;12988238;22;20011;-76
2022/11/08 05:50:07;;;;;;;84.68;34.60;;;;;;;;;;12997475;22;19996;-74
2022/11/08 05:55:07;;;;;;;71.88;34.13;;;;;;;;;;12944636;22;20075;-76
2022/11/08 06:00:09;;;;;;;68.32;32.33;;;;;;;;;;12945899;22;20154;-75
2022/11/08 06:05:09;;;;;;;70.10;33.35;;;;;;;;;;12944751;22;20038;-74
2022/11/08 06:10:09;;;;;;;75.53;32.00;;;;;;;;;;12949068;22;20053;-75
2022/11/08 06:15:10;;;;;;;62.45;31.98;;;;;;;;;;12997463;22;20019;-76
2022/11/08 06:20:13;;;;;;;72.40;34.65;;;;;;;;;;12949301;22;20019;-79
2022/11/08 06:25:13;;;;;;;75.38;34.45;;;;;;;;;;12962943;22;20450;-76
2022/11/08 06:30:13;;;;;;;72.47;34.73;;;;;;;;;;12950733;22;20010;-74
2022/11/08 06:35:14;;;;;;;80.75;35.72;;;;;;;;;;13011712;22;19998;-76
2022/11/08 06:40:14;;;;;;;76.40;35.58;;;;;;;;;;12951994;22;20470;-81
2022/11/08 06:45:14;;;;;;;68.63;33.78;;;;;;;;;;12997598;22;20016;-74
2022/11/08 06:50:17;;;;;;;70.90;33.67;;;;;;;;;;12949009;22;20439;-82
2022/11/08 06:55:18;;;;;;;75.22;32.10;;;;;;;;;;12976144;22;20428;-78
2022/11/08 07:00:19;;;;;;;66.70;30.90;;;;;;;;;;12949334;22;20430;-80
2022/11/08 07:05:20;;;;;;;71.55;31.77;;;;;;;;;;12949325;22;19996;-75
2022/11/08 07:10:21;;;;;;;66.85;32.30;;;;;;;;;;12949287;22;19998;-80
2022/11/08 07:15:22;;;;;;;65.00;30.10;;;;;;;;;;12997362;22;20099;-75
2022/11/08 07:20:22;;;;;;;68.07;31.42;;;;;;;;;;12924346;22;20462;-75
2022/11/08 07:25:23;;;;;;;67.43;30.58;;;;;;;;;;12950227;22;20070;-82
2022/11/08 07:30:23;;;;;;;66.38;30.63;;;;;;;;;;12949569;22;19996;-75
2022/11/08 07:35:24;;;;;;;69.40;30.15;;;;;;;;;;12976872;22;20061;-75
2022/11/08 07:40:25;;;;;;;55.30;27.50;;;;;;;;;;12923828;22;20016;-82
2022/11/08 07:45:25;;;;;;;64.90;28.13;;;;;;;;;;12997370;22;20027;-75
2022/11/08 07:50:26;;;;;;;56.03;25.55;;;;;;;;;;12949009;22;20008;-76
2022/11/08 07:55:26;;;;;;;61.38;27.05;;;;;;;;;;12949514;22;19991;-74
2022/11/08 08:00:31;;;;;;;58.75;25.70;;;;;;;;;;12936470;22;20421;-75
2022/11/08 08:05:36;;;;;;;53.58;25.52;;;;;;;;;;12989949;22;19988;-76
2022/11/08 08:10:36;;;;;;;47.17;24.55;;;;;;;;;;12953288;22;20118;-74
2022/11/08 08:15:36;;;;;;;66.28;25.98;;;;;;;;;;12952771;22;20023;-75
2022/11/08 08:20:37;;;;;;;54.97;25.70;;;;;;;;;;12953539;22;19995;-79
2022/11/08 08:25:38;;;;;;;48.65;24.55;;;;;;;;;;12952724;22;20441;-73
2022/11/08 08:30:39;;;;;;;51.50;25.77;;;;;;;;;;13000297;22;20066;-75
2022/11/08 08:35:42;;;;;;;59.22;29.05;;;;;;;;;;12952653;22;20061;-73
2022/11/08 08:40:42;;;;;;;57.53;26.25;;;;;;;;;;12952297;22;20106;-76
2022/11/08 08:45:44;;;;;;;50.88;25.77;;;;;;;;;;12952643;22;20520;-74
2022/11/08 08:50:44;;;;;;;57.60;28.27;;;;;;;;;;12952124;22;19995;-76
2022/11/08 08:55:46;;;;;;;59.10;26.13;;;;;;;;;;12952709;22;20046;-77
2022/11/08 09:00:47;;;;;;;59.53;28.42;;;;;;;;;;12980063;22;20019;-79
2022/11/08 09:05:48;;;;;;;64.70;28.88;;;;;;;;;;12953411;22;20019;-76
2022/11/08 09:10:51;;;;;;;54.13;27.63;;;;;;;;;;13029255;22;19995;-76
2022/11/08 09:16:00;;;;;;;53.47;28.08;;;;;;;;;;12992447;22;19991;-80
2022/11/08 09:21:03;;;;;;;46.08;24.70;;;;;;;;;;12975242;22;20362;-75
2022/11/08 09:26:04;;;;;;;44.15;24.15;;;;;;;;;;12974906;22;19992;-74
2022/11/08 09:31:08;;;;;;;46.95;24.15;;;;;;;;;;12952259;22;20141;-77
2022/11/08 09:36:11;;;;;;;48.25;24.30;;;;;;;;;;12951040;22;20439;-77
2022/11/08 09:41:11;;;;;;;49.28;23.20;;;;;;;;;;12999620;22;19998;-74
2022/11/08 09:46:22;;;;;;;49.15;22.95;;;;;;;;;;12999899;22;20038;-78
2022/11/08 09:51:23;;;;;;;43.00;22.65;;;;;;;;;;12924653;22;19995;-75
2022/11/08 09:56:27;;;;;;;49.38;23.77;;;;;;;;;;12997882;22;20063;-74
2022/11/08 10:01:31;;;;;;;51.50;22.73;;;;;;;;;;12925377;22;20019;-80
2022/11/08 10:06:32;;;;;;;49.10;22.20;;;;;;;;;;12950725;22;20022;-73
2022/11/08 10:11:32;;;;;;;40.55;21.10;;;;;;;;;;12998631;22;20027;-77
2022/11/08 10:16:38;;;;;;;43.75;22.08;;;;;;;;;;12950751;22;19991;-80
2022/11/08 10:21:52;;;;;;;42.85;21.25;;;;;;;;;;12998403;22;19992;-74
2022/11/08 10:26:53;;;;;;;34.53;18.33;;;;;;;;;;12949622;22;19998;-73
2022/11/08 10:32:15;;;;;;;47.92;20.17;;;;;;;;;;12950045;22;20454;-78
2022/11/08 10:37:15;;;;;;;36.72;18.83;;;;;;;;;;12949866;22;19998;-75
2022/11/08 10:42:21;;;;;;;36.17;19.52;;;;;;;;;;12949860;22;20018;-76
2022/11/08 10:47:25;;;;;;;34.95;17.77;;;;;;;;;;12998035;22;19992;-74
2022/11/08 10:52:40;;;;;;;36.30;19.15;;;;;;;;;;12971859;22;20056;-78
2022/11/08 10:57:42;;;;;;;35.65;19.45;;;;;;;;;;12949354;22;20047;-77
2022/11/08 11:02:43;;;;;;;39.58;18.58;;;;;;;;;;12949455;22;19991;-73
2022/11/08 11:07:45;;;;;;;37.88;19.40;;;;;;;;;;12949109;22;20482;-73
2022/11/08 11:12:50;;;;;;;36.35;20.02;;;;;;;;;;12948896;22;20027;-74
2022/11/08 11:17:50;;;;;;;36.97;17.83;;;;;;;;;;12997659;22;20579;-78
2022/11/08 11:22:51;;;;;;;33.03;16.80;;;;;;;;;;12948661;22;20019;-79
2022/11/08 11:28:00;;;;;;;46.85;17.52;;;;;;;;;;12949427;22;20113;-83
2022/11/08 11:33:19;;;;;;;37.38;17.80;;;;;;;;;;12949191;22;20319;-80
2022/11/08 11:38:34;;;;;;;41.28;18.25;;;;;;;;;;12953284;22;20329;-81
2022/11/08 11:43:38;;;;;;;37.00;17.85;;;;;;;;;;12953800;22;20498;-75
2022/11/08 11:48:41;;;;;;;37.25;17.40;;;;;;;;;;12953652;22;19996;-75
2022/11/08 11:53:41;;;;;;;33.20;16.40;;;;;;;;;;12952849;22;20087;-73
2022/11/08 11:59:00;;;;;;;29.67;15.17;;;;;;;;;;12953211;22;20054;-74
2022/11/08 12:04:07;;;;;;;37.85;17.58;;;;;;;;;;12952683;22;20016;-78
2022/11/08 12:09:16;;;;;;;33.65;15.07;;;;;;;;;;12953086;22;20008;-77
2022/11/08 12:14:16;;;;;;;34.20;17.55;;;;;;;;;;12952999;22;20003;-74
2022/11/08 12:19:40;;;;;;;37.13;16.58;;;;;;;;;;12954694;22;20071;-77
2022/11/08 12:24:47;;;;;;;31.92;15.57;;;;;;;;;;12970513;22;20014;-77
2022/11/08 12:29:56;;;;;;;30.10;14.23;;;;;;;;;;12953196;22;20306;-74
2022/11/08 12:35:23;;;;;;;32.22;13.68;;;;;;;;;;12927497;22;20219;-78
2022/11/08 12:40:27;;;;;;;27.95;13.93;;;;;;;;;;12942566;22;20106;-74
2022/11/08 12:45:40;;;;;;;28.58;14.30;;;;;;;;;;12951550;22;19995;-74
2022/11/08 12:51:04;;;;;;;37.33;16.13;;;;;;;;;;13000561;22;20004;-74
2022/11/08 12:56:10;;;;;;;24.27;13.38;;;;;;;;;;12931908;22;19988;-75
2022/11/08 13:01:14;;;;;;;26.73;14.50;;;;;;;;;;12952235;22;20104;-74
2022/11/08 13:06:23;;;;;;;30.67;15.93;;;;;;;;;;12973468;22;20478;-81
2022/11/08 13:11:31;;;;;;;25.15;12.73;;;;;;;;;;12951074;22;20004;-75
2022/11/08 13:16:39;;;;;;;31.02;13.23;;;;;;;;;;12926440;22;19998;-78
2022/11/08 13:21:40;;;;;;;24.27;13.45;;;;;;;;;;12951419;22;19995;-76
2022/11/08 13:26:42;;;;;;;23.67;13.25;;;;;;;;;;12926454;22;20026;-79
2022/11/08 13:31:45;;;;;;;24.63;13.20;;;;;;;;;;12999105;22;20370;-75
2022/11/08 13:36:48;;;;;;;36.08;13.90;;;;;;;;;;12951294;22;20004;-74
2022/11/08 13:42:02;;;;;;;26.25;14.07;;;;;;;;;;12950861;22;19996;-75
2022/11/08 13:47:02;;;;;;;28.95;14.25;;;;;;;;;;12998545;22;20071;-75
2022/11/08 13:52:23;;;;;;;25.15;14.30;;;;;;;;;;12950461;22;20062;-77
2022/11/08 13:57:43;;;;;;;26.75;13.57;;;;;;;;;;12874306;22;20083;-76
2022/11/08 14:02:43;;;;;;;26.42;14.00;;;;;;;;;;12950748;22;19996;-75
2022/11/08 14:07:47;;;;;;;24.93;13.23;;;;;;;;;;12950631;22;20003;-76
2022/11/08 14:13:08;;;;;;;26.25;12.65;;;;;;;;;;12947906;22;20004;-76
2022/11/08 14:18:09;;;;;;;26.40;11.93;;;;;;;;;;12948191;22;19998;-75
2022/11/08 14:23:18;;;;;;;24.05;13.70;;;;;;;;;;12948224;22;20075;-76
2022/11/08 14:28:21;;;;;;;25.63;13.18;;;;;;;;;;12983049;22;19996;-78
2022/11/08 14:33:29;;;;;;;26.83;14.57;;;;;;;;;;12948598;22;19999;-76
2022/11/08 14:38:32;;;;;;;27.25;15.13;;;;;;;;;;12977362;22;19992;-74
2022/11/08 14:43:42;;;;;;;32.67;13.68;;;;;;;;;;12947813;22;20350;-75
2022/11/08 14:48:55;;;;;;;36.60;14.73;;;;;;;;;;12947636;22;20006;-79
2022/11/08 14:53:55;;;;;;;32.30;16.30;;;;;;;;;;12947660;22;20423;-74
2022/11/08 14:58:56;;;;;;;32.88;16.00;;;;;;;;;;12947054;22;20012;-74
2022/11/08 15:03:58;;;;;;;32.53;17.15;;;;;;;;;;12995779;22;20003;-77
2022/11/08 15:08:59;;;;;;;34.20;16.70;;;;;;;;;;12946632;22;19992;-78
2022/11/08 15:14:06;;;;;;;35.08;16.42;;;;;;;;;;12947624;22;19995;-76
2022/11/08 15:19:30;;;;;;;32.50;16.48;;;;;;;;;;12968240;22;20415;-74
2022/11/08 15:24:38;;;;;;;28.80;15.30;;;;;;;;;;12947764;22;19988;-79
2022/11/08 15:29:48;;;;;;;42.35;17.20;;;;;;;;;;12996305;22;19996;-73
2022/11/08 15:34:51;;;;;;;38.85;16.42;;;;;;;;;;12952690;22;20449;-75
2022/11/08 15:39:52;;;;;;;37.13;17.75;;;;;;;;;;12959131;22;20435;-73
2022/11/08 15:45:06;;;;;;;34.80;17.85;;;;;;;;;;13004006;22;19995;-74
2022/11/08 15:50:13;;;;;;;34.00;16.75;;;;;;;;;;12955739;22;20000;-75
2022/11/08 15:55:15;;;;;;;38.35;19.05;;;;;;;;;;12948126;22;20474;-76
2022/11/08 16:00:25;;;;;;;42.15;18.88;;;;;;;;;;12948215;22;20015;-82
2022/11/08 16:05:26;;;;;;;37.00;19.42;;;;;;;;;;12967455;22;20014;-75
2022/11/08 16:10:46;;;;;;;43.53;20.48;;;;;;;;;;12948870;22;20055;-75
2022/11/08 16:15:46;;;;;;;44.65;20.42;;;;;;;;;;12948348;22;20023;-75
2022/11/08 16:20:47;;;;;;;53.90;22.30;;;;;;;;;;12949590;22;19992;-75
2022/11/08 16:25:51;;;;;;;45.53;19.42;;;;;;;;;;12926695;22;20363;-76
2022/11/08 16:30:52;;;;;;;51.17;22.75;;;;;;;;;;13000317;22;20046;-78
2022/11/08 16:35:53;;;;;;;50.80;22.45;;;;;;;;;;12952478;22;19995;-78
2022/11/08 16:40:54;;;;;;;51.45;21.92;;;;;;;;;;12999211;22;20067;-73
2022/11/08 16:45:54;;;;;;;43.90;22.02;;;;;;;;;;12951604;22;20403;-79
2022/11/08 16:51:02;;;;;;;46.55;21.42;;;;;;;;;;12999416;22;19996;-76
2022/11/08 16:56:02;;;;;;;53.60;21.23;;;;;;;;;;12949814;22;19991;-79
2022/11/08 17:01:03;;;;;;;57.63;23.20;;;;;;;;;;12978840;22;20022;-78
2022/11/08 17:06:04;;;;;;;46.22;20.30;;;;;;;;;;12950623;22;20024;-76
2022/11/08 17:11:04;;;;;;;50.80;24.15;;;;;;;;;;12967629;22;20004;-74
2022/11/08 17:16:04;;;;;;;48.72;22.30;;;;;;;;;;12943482;22;19987;-72
2022/11/08 17:21:05;;;;;;;47.92;20.95;;;;;;;;;;12995692;22;19999;-75
2022/11/08 17:26:06;;;;;;;46.00;22.95;;;;;;;;;;12945716;22;20049;-76
2022/11/08 17:31:11;;;;;;;45.17;22.42;;;;;;;;;;12973164;22;19999;-76
2022/11/08 17:36:12;;;;;;;45.80;22.80;;;;;;;;;;12967948;22;20066;-75
2022/11/08 17:41:14;;;;;;;66.93;24.45;;;;;;;;;;12945725;22;20352;-75
2022/11/08 17:46:14;;;;;;;59.45;27.52;;;;;;;;;;12946510;22;19992;-74
2022/11/08 17:51:15;;;;;;;54.72;24.67;;;;;;;;;;12993878;22;19999;-75
2022/11/08 17:56:15;;;;;;;54.13;24.13;;;;;;;;;;12971503;22;19992;-75
2022/11/08 18:01:16;;;;;;;48.17;23.55;;;;;;;;;;12942618;22;20039;-77
2022/11/08 18:06:16;;;;;;;58.42;25.45;;;;;;;;;;12946193;22;20398;-72
2022/11/08 18:11:17;;;;;;;48.22;21.35;;;;;;;;;;12937811;22;20004;-73
2022/11/08 18:16:18;;;;;;;48.35;21.42;;;;;;;;;;12947538;22;20117;-74
2022/11/08 18:21:18;;;;;;;49.15;21.55;;;;;;;;;;12957423;22;20003;-74
2022/11/08 18:26:19;;;;;;;48.00;22.23;;;;;;;;;;12958515;22;20030;-73
2022/11/08 18:31:20;;;;;;;50.47;23.23;;;;;;;;;;12958372;22;20000;-80
2022/11/08 18:36:22;;;;;;;46.88;21.90;;;;;;;;;;12947032;22;20003;-77
2022/11/08 18:41:24;;;;;;;50.60;23.52;;;;;;;;;;12945778;22;19999;-78
2022/11/08 18:46:26;;;;;;;49.28;24.27;;;;;;;;;;12945636;22;20451;-78
2022/11/08 18:51:26;;;;;;;50.10;24.08;;;;;;;;;;12944064;22;20007;-73
2022/11/08 18:56:26;;;;;;;55.45;24.10;;;;;;;;;;12945923;22;19992;-74
2022/11/08 19:01:26;;;;;;;50.87;23.30;;;;;;;;;;12945068;22;20043;-75
2022/11/08 19:06:27;;;;;;;47.97;22.80;;;;;;;;;;12942293;22;19992;-77
2022/11/08 19:11:29;;;;;;;44.63;21.67;;;;;;;;;;12941485;22;20021;-76
2022/11/08 19:16:29;;;;;;;50.83;24.65;;;;;;;;;;12940395;22;20447;-77
2022/11/08 19:21:30;;;;;;;47.13;22.52;;;;;;;;;;12944164;22;19995;-74
2022/11/08 19:26:30;;;;;;;43.67;23.02;;;;;;;;;;12944711;22;19992;-72
2022/11/08 19:31:30;;;;;;;43.92;21.80;;;;;;;;;;12944084;22;20334;-76
2022/11/08 19:36:39;;;;;;;41.40;21.87;;;;;;;;;;12943028;22;19988;-73
2022/11/08 19:41:39;;;;;;;47.30;19.88;;;;;;;;;;12993590;22;20062;-73
2022/11/08 19:46:40;;;;;;;39.50;20.48;;;;;;;;;;12993590;22;20022;-72
2022/11/08 19:51:40;;;;;;;41.80;19.20;;;;;;;;;;12992648;22;20031;-77
2022/11/08 19:56:41;;;;;;;40.20;19.20;;;;;;;;;;12941734;22;19992;-72
2022/11/08 20:01:41;;;;;;;40.38;20.17;;;;;;;;;;12947978;22;20452;-79
2022/11/08 20:06:43;;;;;;;40.03;20.08;;;;;;;;;;12975004;22;20063;-73
2022/11/08 20:11:44;;;;;;;42.58;18.70;;;;;;;;;;12945391;22;20027;-76
2022/11/08 20:16:44;;;;;;;38.72;18.95;;;;;;;;;;12997354;22;20430;-76
2022/11/08 20:21:45;;;;;;;45.38;19.30;;;;;;;;;;12948316;22;20026;-75
2022/11/08 20:26:45;;;;;;;38.63;19.27;;;;;;;;;;12946047;22;20129;-76
2022/11/08 20:31:48;;;;;;;42.58;19.27;;;;;;;;;;12946052;22;20033;-73
2022/11/08 20:36:48;;;;;;;39.47;18.40;;;;;;;;;;12947378;22;20425;-78
2022/11/08 20:41:50;;;;;;;38.15;18.98;;;;;;;;;;12946642;22;20023;-75
2022/11/08 20:46:51;;;;;;;36.58;19.05;;;;;;;;;;12988291;22;19988;-78
2022/11/08 20:51:51;;;;;;;39.58;19.58;;;;;;;;;;12983386;22;20292;-74
2022/11/08 20:56:52;;;;;;;43.75;20.67;;;;;;;;;;12962920;22;20422;-73
2022/11/08 21:01:52;;;;;;;39.90;20.38;;;;;;;;;;12961394;22;20416;-77
2022/11/08 21:06:52;;;;;;;43.03;21.10;;;;;;;;;;12972583;22;20006;-75
2022/11/08 21:11:53;;;;;;;47.45;23.15;;;;;;;;;;12945057;22;20031;-74
2022/11/08 21:16:56;;;;;;;46.63;22.00;;;;;;;;;;12948507;22;20372;-74
2022/11/08 21:22:13;;;;;;;49.05;22.10;;;;;;;;;;12997439;22;19996;-78
2022/11/08 21:27:14;;;;;;;47.88;24.17;;;;;;;;;;12953977;22;19998;-80
2022/11/08 21:32:15;;;;;;;40.83;22.15;;;;;;;;;;12998541;22;19995;-78
2022/11/08 21:37:15;;;;;;;51.47;21.13;;;;;;;;;;12999952;22;20030;-74
2022/11/08 21:42:15;;;;;;;56.92;25.33;;;;;;;;;;12999879;22;20018;-76
2022/11/08 21:47:15;;;;;;;52.25;23.23;;;;;;;;;;12951636;22;20486;-76
2022/11/08 21:52:16;;;;;;;55.67;26.25;;;;;;;;;;12951016;22;20003;-75
2022/11/08 21:57:16;;;;;;;52.97;25.80;;;;;;;;;;12951015;22;20026;-77
2022/11/08 22:02:17;;;;;;;54.15;25.33;;;;;;;;;;12951139;22;20277;-74
2022/11/08 22:07:17;;;;;;;49.88;25.23;;;;;;;;;;13000800;22;20019;-77
2022/11/08 22:12:17;;;;;;;49.97;24.90;;;;;;;;;;12950744;22;20000;-75
2022/11/08 22:17:18;;;;;;;55.83;24.40;;;;;;;;;;12950755;22;19996;-76
2022/11/08 22:22:19;;;;;;;53.70;23.80;;;;;;;;;;12950381;22;20435;-71
2022/11/08 22:27:19;;;;;;;60.15;24.85;;;;;;;;;;12950862;22;20023;-76
2022/11/08 22:32:20;;;;;;;60.28;26.35;;;;;;;;;;12950679;22;20090;-72
2022/11/08 22:37:21;;;;;;;51.30;23.65;;;;;;;;;;12950134;22;19998;-74
2022/11/08 22:42:21;;;;;;;56.67;27.07;;;;;;;;;;12925111;22;20522;-74
2022/11/08 22:47:21;;;;;;;51.40;23.70;;;;;;;;;;12925654;22;19995;-74
2022/11/08 22:52:21;;;;;;;51.25;25.52;;;;;;;;;;12925085;22;19996;-73
2022/11/08 22:57:22;;;;;;;54.05;25.02;;;;;;;;;;12950416;22;20011;-73
2022/11/08 23:02:22;;;;;;;55.78;25.10;;;;;;;;;;12950462;22;19996;-73
2022/11/08 23:07:22;;;;;;;52.45;25.67;;;;;;;;;;12950471;22;20398;-78
2022/11/08 23:17:41;;;;;;;48.65;23.13;;;;;;;;;;13025733;22;19991;-78
2022/11/08 23:33:33;;;;;;;59.70;25.95;;;;;;;;;;12920586;22;20003;-74
2022/11/08 23:38:35;;;;;;;60.72;24.35;;;;;;;;;;12955077;22;20070;-73
2022/11/08 23:48:54;;;;;;;54.75;25.60;;;;;;;;;;13002584;22;19992;-75
2022/11/08 23:53:54;;;;;;;56.08;24.65;;;;;;;;;;12954358;22;20007;-73
2022/11/08 23:58:57;;;;;;;55.85;25.65;;;;;;;;;;12953123;22;20478;-73
